Beemerville, New Jersey
Current Conditions -  °F | °C
As of 6:53 AM on Monday 24 Nov 2014 (Local Time) from KFWN Reporting Station
Overcast Overcast  
Wind Chill: 63°   Ceiling: 2100
Heat Index: 63°   Visibility: 10mi
Dew Point: 59°   Wind: 15mph
Humidity: 87%   Direction: 190°S
Pressure: 29.62"   Gusts: 22mph
Location:  41.2395°N, 74.6087°W
Report Text: KFWN 241153Z AUTO 19013G19KT 10SM BKN021 BKN027 OVC037 17/15 A2962 RMK AO2 RAB11E51 SLP031 P0001 60032 70032 T01720150 10172 20056 56031
Loading
Personal Weather Stations






























Interactive Weather Map New forecast layout! Learn more

10-Day Weather Forecast

Advertisements
Track Severe Weather on mobile